sensor_id;sensor_type;location;lat;lon;timestamp;P1;durP1;ratioP1;P2;durP2;ratioP2
757;SDS011;363;48.764;9.172;2022-08-03T00:01:27;4.50;;;4.20;;
757;SDS011;363;48.764;9.172;2022-08-03T00:03:52;4.67;;;4.27;;
757;SDS011;363;48.764;9.172;2022-08-03T00:06:18;4.30;;;4.00;;
757;SDS011;363;48.764;9.172;2022-08-03T00:08:43;4.10;;;3.80;;
757;SDS011;363;48.764;9.172;2022-08-03T00:11:09;3.87;;;3.60;;
757;SDS011;363;48.764;9.172;2022-08-03T00:13:35;4.77;;;4.37;;
757;SDS011;363;48.764;9.172;2022-08-03T00:16:00;4.23;;;3.93;;
757;SDS011;363;48.764;9.172;2022-08-03T00:18:26;5.00;;;4.50;;
757;SDS011;363;48.764;9.172;2022-08-03T00:20:51;4.50;;;4.10;;
757;SDS011;363;48.764;9.172;2022-08-03T00:23:17;4.40;;;4.10;;
757;SDS011;363;48.764;9.172;2022-08-03T00:25:43;4.53;;;4.23;;
757;SDS011;363;48.764;9.172;2022-08-03T00:28:08;4.63;;;4.23;;
757;SDS011;363;48.764;9.172;2022-08-03T00:30:34;5.27;;;4.87;;
757;SDS011;363;48.764;9.172;2022-08-03T00:33:00;4.50;;;4.10;;
757;SDS011;363;48.764;9.172;2022-08-03T00:35:26;4.57;;;4.17;;
757;SDS011;363;48.764;9.172;2022-08-03T00:37:52;4.70;;;4.10;;
757;SDS011;363;48.764;9.172;2022-08-03T00:40:18;4.10;;;3.70;;
757;SDS011;363;48.764;9.172;2022-08-03T00:42:45;3.90;;;3.55;;
757;SDS011;363;48.764;9.172;2022-08-03T00:45:12;4.80;;;4.40;;
757;SDS011;363;48.764;9.172;2022-08-03T00:47:38;4.60;;;4.20;;
757;SDS011;363;48.764;9.172;2022-08-03T00:50:03;3.87;;;3.60;;
757;SDS011;363;48.764;9.172;2022-08-03T00:52:30;3.85;;;3.65;;
757;SDS011;363;48.764;9.172;2022-08-03T00:54:55;4.80;;;4.40;;
757;SDS011;363;48.764;9.172;2022-08-03T00:57:21;4.10;;;3.80;;
757;SDS011;363;48.764;9.172;2022-08-03T00:59:47;4.70;;;4.30;;
757;SDS011;363;48.764;9.172;2022-08-03T01:02:12;3.97;;;3.67;;
757;SDS011;363;48.764;9.172;2022-08-03T01:04:38;4.33;;;3.93;;
757;SDS011;363;48.764;9.172;2022-08-03T01:07:05;5.00;;;4.50;;
757;SDS011;363;48.764;9.172;2022-08-03T01:12:21;4.82;;;4.32;;
757;SDS011;363;48.764;9.172;2022-08-03T01:15:12;4.75;;;4.40;;
757;SDS011;363;48.764;9.172;2022-08-03T01:20:34;4.45;;;4.05;;
757;SDS011;363;48.764;9.172;2022-08-03T01:29:35;4.63;;;4.22;;
757;SDS011;363;48.764;9.172;2022-08-03T01:32:14;4.38;;;4.07;;
757;SDS011;363;48.764;9.172;2022-08-03T01:34:51;4.50;;;4.10;;
757;SDS011;363;48.764;9.172;2022-08-03T01:37:23;4.43;;;4.03;;
757;SDS011;363;48.764;9.172;2022-08-03T01:39:56;4.30;;;3.88;;
757;SDS011;363;48.764;9.172;2022-08-03T01:42:25;3.60;;;3.40;;
757;SDS011;363;48.764;9.172;2022-08-03T01:44:52;4.38;;;4.05;;
757;SDS011;363;48.764;9.172;2022-08-03T01:47:21;4.80;;;4.30;;
757;SDS011;363;48.764;9.172;2022-08-03T01:49:48;4.60;;;4.20;;
757;SDS011;363;48.764;9.172;2022-08-03T01:52:18;5.05;;;4.57;;
757;SDS011;363;48.764;9.172;2022-08-03T01:54:46;4.68;;;4.25;;
757;SDS011;363;48.764;9.172;2022-08-03T01:57:14;4.80;;;4.40;;
757;SDS011;363;48.764;9.172;2022-08-03T01:59:41;4.90;;;4.50;;
757;SDS011;363;48.764;9.172;2022-08-03T02:02:09;4.90;;;4.40;;
757;SDS011;363;48.764;9.172;2022-08-03T02:04:37;4.72;;;4.32;;
757;SDS011;363;48.764;9.172;2022-08-03T02:07:05;5.45;;;4.20;;
757;SDS011;363;48.764;9.172;2022-08-03T02:09:33;4.57;;;4.20;;
757;SDS011;363;48.764;9.172;2022-08-03T02:12:03;4.40;;;4.10;;
757;SDS011;363;48.764;9.172;2022-08-03T02:14:35;4.60;;;4.30;;
757;SDS011;363;48.764;9.172;2022-08-03T02:17:03;5.00;;;4.53;;
757;SDS011;363;48.764;9.172;2022-08-03T02:19:30;4.70;;;4.30;;
757;SDS011;363;48.764;9.172;2022-08-03T02:21:58;4.70;;;4.30;;
757;SDS011;363;48.764;9.172;2022-08-03T02:24:24;4.28;;;3.97;;
757;SDS011;363;48.764;9.172;2022-08-03T02:26:50;4.30;;;4.00;;
757;SDS011;363;48.764;9.172;2022-08-03T02:29:20;4.53;;;4.10;;
757;SDS011;363;48.764;9.172;2022-08-03T02:31:48;5.80;;;5.20;;
757;SDS011;363;48.764;9.172;2022-08-03T02:34:15;4.90;;;4.47;;
757;SDS011;363;48.764;9.172;2022-08-03T02:36:43;4.97;;;4.57;;
757;SDS011;363;48.764;9.172;2022-08-03T02:39:12;5.07;;;4.57;;
757;SDS011;363;48.764;9.172;2022-08-03T02:41:53;5.75;;;4.30;;
757;SDS011;363;48.764;9.172;2022-08-03T02:44:26;5.13;;;4.72;;
757;SDS011;363;48.764;9.172;2022-08-03T02:46:56;4.78;;;4.38;;
757;SDS011;363;48.764;9.172;2022-08-03T02:49:26;5.47;;;4.97;;
757;SDS011;363;48.764;9.172;2022-08-03T02:51:53;6.05;;;5.53;;
757;SDS011;363;48.764;9.172;2022-08-03T02:54:21;5.20;;;4.75;;
757;SDS011;363;48.764;9.172;2022-08-03T02:56:48;4.40;;;4.10;;
757;SDS011;363;48.764;9.172;2022-08-03T02:59:16;4.28;;;3.97;;
757;SDS011;363;48.764;9.172;2022-08-03T03:01:43;5.93;;;4.72;;
757;SDS011;363;48.764;9.172;2022-08-03T03:04:10;4.70;;;4.40;;
757;SDS011;363;48.764;9.172;2022-08-03T03:06:37;5.20;;;4.75;;
757;SDS011;363;48.764;9.172;2022-08-03T03:09:04;5.00;;;4.65;;
757;SDS011;363;48.764;9.172;2022-08-03T03:11:30;5.30;;;4.88;;
757;SDS011;363;48.764;9.172;2022-08-03T03:13:57;5.25;;;4.75;;
757;SDS011;363;48.764;9.172;2022-08-03T03:16:24;4.95;;;4.65;;
757;SDS011;363;48.764;9.172;2022-08-03T03:18:51;5.20;;;4.80;;
757;SDS011;363;48.764;9.172;2022-08-03T03:21:18;5.50;;;5.00;;
757;SDS011;363;48.764;9.172;2022-08-03T03:23:45;4.63;;;4.32;;
757;SDS011;363;48.764;9.172;2022-08-03T03:26:15;5.47;;;5.07;;
757;SDS011;363;48.764;9.172;2022-08-03T03:28:41;5.63;;;5.13;;
757;SDS011;363;48.764;9.172;2022-08-03T03:31:08;5.47;;;4.97;;
757;SDS011;363;48.764;9.172;2022-08-03T03:33:34;4.25;;;3.95;;
757;SDS011;363;48.764;9.172;2022-08-03T03:36:00;4.80;;;4.30;;
757;SDS011;363;48.764;9.172;2022-08-03T03:38:27;5.00;;;4.65;;
757;SDS011;363;48.764;9.172;2022-08-03T03:40:53;4.95;;;4.45;;
757;SDS011;363;48.764;9.172;2022-08-03T03:43:19;5.32;;;4.75;;
757;SDS011;363;48.764;9.172;2022-08-03T03:45:46;5.20;;;4.80;;
757;SDS011;363;48.764;9.172;2022-08-03T03:48:13;4.90;;;4.60;;
757;SDS011;363;48.764;9.172;2022-08-03T03:50:39;5.37;;;4.97;;
757;SDS011;363;48.764;9.172;2022-08-03T03:53:07;5.53;;;5.07;;
757;SDS011;363;48.764;9.172;2022-08-03T03:55:34;5.72;;;5.13;;
757;SDS011;363;48.764;9.172;2022-08-03T03:58:01;5.38;;;4.95;;
757;SDS011;363;48.764;9.172;2022-08-03T04:00:28;5.68;;;5.05;;
757;SDS011;363;48.764;9.172;2022-08-03T04:02:53;5.50;;;5.10;;
757;SDS011;363;48.764;9.172;2022-08-03T04:05:19;5.47;;;4.97;;
757;SDS011;363;48.764;9.172;2022-08-03T04:08:11;5.50;;;5.10;;
757;SDS011;363;48.764;9.172;2022-08-03T04:11:13;5.68;;;5.18;;
757;SDS011;363;48.764;9.172;2022-08-03T04:13:54;5.47;;;5.07;;
757;SDS011;363;48.764;9.172;2022-08-03T04:16:25;7.22;;;5.22;;
757;SDS011;363;48.764;9.172;2022-08-03T04:18:56;5.50;;;5.00;;
757;SDS011;363;48.764;9.172;2022-08-03T04:21:26;5.72;;;5.20;;
757;SDS011;363;48.764;9.172;2022-08-03T04:23:54;6.38;;;5.88;;
757;SDS011;363;48.764;9.172;2022-08-03T04:26:23;6.60;;;5.78;;
757;SDS011;363;48.764;9.172;2022-08-03T04:28:53;7.75;;;6.25;;
757;SDS011;363;48.764;9.172;2022-08-03T04:31:19;6.40;;;5.90;;
757;SDS011;363;48.764;9.172;2022-08-03T04:33:47;6.35;;;5.82;;
757;SDS011;363;48.764;9.172;2022-08-03T04:36:15;6.35;;;5.20;;
757;SDS011;363;48.764;9.172;2022-08-03T04:41:27;5.05;;;4.65;;
757;SDS011;363;48.764;9.172;2022-08-03T04:43:55;6.28;;;5.78;;
757;SDS011;363;48.764;9.172;2022-08-03T04:46:25;6.35;;;5.50;;
757;SDS011;363;48.764;9.172;2022-08-03T04:48:52;6.95;;;5.80;;
757;SDS011;363;48.764;9.172;2022-08-03T04:51:18;5.77;;;5.37;;
757;SDS011;363;48.764;9.172;2022-08-03T04:53:44;6.20;;;5.60;;
757;SDS011;363;48.764;9.172;2022-08-03T04:56:09;5.90;;;5.37;;
757;SDS011;363;48.764;9.172;2022-08-03T04:58:35;5.83;;;5.40;;
757;SDS011;363;48.764;9.172;2022-08-03T05:01:01;5.80;;;5.40;;
757;SDS011;363;48.764;9.172;2022-08-03T05:03:26;6.00;;;5.50;;
757;SDS011;363;48.764;9.172;2022-08-03T05:05:52;6.37;;;5.63;;
757;SDS011;363;48.764;9.172;2022-08-03T05:08:19;5.55;;;5.15;;
757;SDS011;363;48.764;9.172;2022-08-03T05:10:45;6.10;;;5.60;;
757;SDS011;363;48.764;9.172;2022-08-03T05:13:11;6.40;;;5.82;;
757;SDS011;363;48.764;9.172;2022-08-03T05:15:38;6.45;;;5.85;;
757;SDS011;363;48.764;9.172;2022-08-03T05:18:04;6.65;;;6.05;;
757;SDS011;363;48.764;9.172;2022-08-03T05:20:30;7.23;;;6.40;;
757;SDS011;363;48.764;9.172;2022-08-03T05:22:56;6.47;;;5.87;;
757;SDS011;363;48.764;9.172;2022-08-03T05:25:23;6.15;;;5.75;;
757;SDS011;363;48.764;9.172;2022-08-03T05:27:49;6.87;;;6.27;;
757;SDS011;363;48.764;9.172;2022-08-03T05:30:14;6.40;;;5.90;;
757;SDS011;363;48.764;9.172;2022-08-03T05:32:40;7.67;;;5.80;;
757;SDS011;363;48.764;9.172;2022-08-03T05:35:06;6.63;;;6.13;;
757;SDS011;363;48.764;9.172;2022-08-03T05:37:32;6.63;;;6.13;;
757;SDS011;363;48.764;9.172;2022-08-03T05:39:57;6.20;;;5.70;;
757;SDS011;363;48.764;9.172;2022-08-03T05:42:23;6.40;;;5.80;;
757;SDS011;363;48.764;9.172;2022-08-03T05:44:48;6.77;;;6.10;;
757;SDS011;363;48.764;9.172;2022-08-03T05:47:14;6.40;;;5.90;;
757;SDS011;363;48.764;9.172;2022-08-03T05:49:40;6.97;;;6.37;;
757;SDS011;363;48.764;9.172;2022-08-03T05:52:05;6.27;;;5.77;;
757;SDS011;363;48.764;9.172;2022-08-03T05:54:31;6.13;;;5.63;;
757;SDS011;363;48.764;9.172;2022-08-03T05:56:56;6.30;;;5.70;;
757;SDS011;363;48.764;9.172;2022-08-03T05:59:22;6.60;;;5.77;;
757;SDS011;363;48.764;9.172;2022-08-03T06:01:49;5.95;;;5.40;;
757;SDS011;363;48.764;9.172;2022-08-03T06:04:15;6.13;;;5.53;;
757;SDS011;363;48.764;9.172;2022-08-03T06:06:40;5.67;;;5.17;;
757;SDS011;363;48.764;9.172;2022-08-03T06:09:07;5.47;;;5.07;;
757;SDS011;363;48.764;9.172;2022-08-03T06:11:34;5.73;;;5.13;;
757;SDS011;363;48.764;9.172;2022-08-03T06:14:00;5.93;;;5.50;;
757;SDS011;363;48.764;9.172;2022-08-03T06:16:25;5.27;;;4.87;;
757;SDS011;363;48.764;9.172;2022-08-03T06:18:51;5.50;;;5.00;;
757;SDS011;363;48.764;9.172;2022-08-03T06:21:17;5.53;;;5.03;;
757;SDS011;363;48.764;9.172;2022-08-03T06:23:43;5.67;;;5.20;;
757;SDS011;363;48.764;9.172;2022-08-03T06:26:09;5.67;;;5.27;;
757;SDS011;363;48.764;9.172;2022-08-03T06:28:35;4.87;;;4.47;;
757;SDS011;363;48.764;9.172;2022-08-03T06:31:01;4.97;;;4.57;;
757;SDS011;363;48.764;9.172;2022-08-03T06:33:27;6.50;;;6.00;;
757;SDS011;363;48.764;9.172;2022-08-03T06:35:53;6.57;;;6.00;;
757;SDS011;363;48.764;9.172;2022-08-03T06:38:19;5.77;;;5.20;;
757;SDS011;363;48.764;9.172;2022-08-03T06:40:44;4.90;;;4.40;;
757;SDS011;363;48.764;9.172;2022-08-03T06:43:10;5.83;;;5.30;;
757;SDS011;363;48.764;9.172;2022-08-03T06:45:36;8.00;;;4.30;;
757;SDS011;363;48.764;9.172;2022-08-03T06:48:05;4.40;;;4.10;;
757;SDS011;363;48.764;9.172;2022-08-03T06:50:32;9.40;;;4.40;;
757;SDS011;363;48.764;9.172;2022-08-03T06:52:59;4.00;;;3.70;;
757;SDS011;363;48.764;9.172;2022-08-03T06:55:25;3.57;;;3.27;;
757;SDS011;363;48.764;9.172;2022-08-03T06:57:51;3.10;;;2.90;;
757;SDS011;363;48.764;9.172;2022-08-03T07:00:17;2.97;;;2.77;;
757;SDS011;363;48.764;9.172;2022-08-03T07:02:43;3.70;;;3.40;;
757;SDS011;363;48.764;9.172;2022-08-03T07:05:09;2.93;;;2.73;;
757;SDS011;363;48.764;9.172;2022-08-03T07:07:35;3.40;;;3.10;;
757;SDS011;363;48.764;9.172;2022-08-03T07:10:02;3.17;;;2.97;;
757;SDS011;363;48.764;9.172;2022-08-03T07:12:29;3.00;;;2.80;;
757;SDS011;363;48.764;9.172;2022-08-03T07:14:55;3.40;;;3.20;;
757;SDS011;363;48.764;9.172;2022-08-03T07:17:22;3.00;;;2.80;;
757;SDS011;363;48.764;9.172;2022-08-03T07:19:47;2.90;;;2.70;;
757;SDS011;363;48.764;9.172;2022-08-03T07:22:13;3.57;;;3.27;;
757;SDS011;363;48.764;9.172;2022-08-03T07:24:39;2.50;;;2.30;;
757;SDS011;363;48.764;9.172;2022-08-03T07:27:06;3.03;;;2.83;;
757;SDS011;363;48.764;9.172;2022-08-03T07:29:33;3.20;;;2.90;;
757;SDS011;363;48.764;9.172;2022-08-03T07:31:58;3.13;;;2.87;;
757;SDS011;363;48.764;9.172;2022-08-03T07:34:24;3.37;;;3.17;;
757;SDS011;363;48.764;9.172;2022-08-03T07:36:49;3.70;;;3.20;;
757;SDS011;363;48.764;9.172;2022-08-03T07:39:15;5.13;;;3.53;;
757;SDS011;363;48.764;9.172;2022-08-03T07:41:40;3.10;;;2.90;;
757;SDS011;363;48.764;9.172;2022-08-03T07:44:06;3.80;;;3.50;;
757;SDS011;363;48.764;9.172;2022-08-03T07:46:32;4.20;;;3.90;;
757;SDS011;363;48.764;9.172;2022-08-03T07:48:57;3.87;;;3.60;;
757;SDS011;363;48.764;9.172;2022-08-03T07:51:23;3.30;;;3.10;;
757;SDS011;363;48.764;9.172;2022-08-03T07:53:48;2.40;;;2.23;;
757;SDS011;363;48.764;9.172;2022-08-03T07:56:14;2.87;;;2.67;;
757;SDS011;363;48.764;9.172;2022-08-03T07:58:40;3.20;;;2.50;;
757;SDS011;363;48.764;9.172;2022-08-03T08:01:06;4.33;;;3.20;;
757;SDS011;363;48.764;9.172;2022-08-03T08:03:32;2.70;;;2.17;;
757;SDS011;363;48.764;9.172;2022-08-03T08:05:57;2.40;;;2.20;;
757;SDS011;363;48.764;9.172;2022-08-03T08:08:23;2.70;;;2.40;;
757;SDS011;363;48.764;9.172;2022-08-03T08:10:48;2.30;;;2.10;;
757;SDS011;363;48.764;9.172;2022-08-03T08:13:14;3.53;;;2.33;;
757;SDS011;363;48.764;9.172;2022-08-03T08:15:39;2.17;;;2.03;;
757;SDS011;363;48.764;9.172;2022-08-03T08:18:05;2.30;;;2.10;;
757;SDS011;363;48.764;9.172;2022-08-03T08:20:32;2.60;;;2.10;;
757;SDS011;363;48.764;9.172;2022-08-03T08:22:59;2.60;;;2.40;;
757;SDS011;363;48.764;9.172;2022-08-03T08:25:26;3.10;;;2.40;;
757;SDS011;363;48.764;9.172;2022-08-03T08:27:52;2.50;;;2.40;;
757;SDS011;363;48.764;9.172;2022-08-03T08:30:19;2.10;;;1.90;;
757;SDS011;363;48.764;9.172;2022-08-03T08:32:46;2.00;;;1.80;;
757;SDS011;363;48.764;9.172;2022-08-03T08:35:13;1.90;;;1.80;;
757;SDS011;363;48.764;9.172;2022-08-03T08:37:39;2.60;;;1.90;;
757;SDS011;363;48.764;9.172;2022-08-03T08:40:05;1.90;;;1.70;;
757;SDS011;363;48.764;9.172;2022-08-03T08:42:32;2.10;;;2.00;;
757;SDS011;363;48.764;9.172;2022-08-03T08:44:59;2.30;;;2.10;;
757;SDS011;363;48.764;9.172;2022-08-03T08:47:28;2.43;;;1.90;;
757;SDS011;363;48.764;9.172;2022-08-03T08:49:55;3.30;;;2.33;;
757;SDS011;363;48.764;9.172;2022-08-03T08:52:23;2.50;;;2.30;;
757;SDS011;363;48.764;9.172;2022-08-03T08:54:51;3.27;;;2.77;;
757;SDS011;363;48.764;9.172;2022-08-03T08:57:28;2.40;;;2.10;;
757;SDS011;363;48.764;9.172;2022-08-03T08:59:59;2.30;;;2.10;;
757;SDS011;363;48.764;9.172;2022-08-03T09:02:28;2.30;;;2.20;;
757;SDS011;363;48.764;9.172;2022-08-03T09:04:55;2.77;;;2.53;;
757;SDS011;363;48.764;9.172;2022-08-03T09:07:21;3.10;;;2.50;;
757;SDS011;363;48.764;9.172;2022-08-03T09:09:47;2.60;;;2.40;;
757;SDS011;363;48.764;9.172;2022-08-03T09:12:13;2.27;;;2.13;;
757;SDS011;363;48.764;9.172;2022-08-03T09:14:39;2.10;;;2.00;;
757;SDS011;363;48.764;9.172;2022-08-03T09:17:05;3.07;;;1.87;;
757;SDS011;363;48.764;9.172;2022-08-03T09:19:32;2.10;;;2.00;;
757;SDS011;363;48.764;9.172;2022-08-03T09:22:14;1.80;;;1.70;;
757;SDS011;363;48.764;9.172;2022-08-03T09:24:57;2.37;;;1.83;;
757;SDS011;363;48.764;9.172;2022-08-03T09:27:24;1.80;;;1.70;;
757;SDS011;363;48.764;9.172;2022-08-03T09:29:50;1.90;;;1.80;;
757;SDS011;363;48.764;9.172;2022-08-03T09:32:20;2.90;;;1.90;;
757;SDS011;363;48.764;9.172;2022-08-03T09:34:47;2.60;;;1.50;;
757;SDS011;363;48.764;9.172;2022-08-03T09:37:15;1.70;;;1.60;;
757;SDS011;363;48.764;9.172;2022-08-03T09:39:43;2.07;;;1.87;;
757;SDS011;363;48.764;9.172;2022-08-03T09:42:14;1.63;;;1.53;;
757;SDS011;363;48.764;9.172;2022-08-03T09:44:42;2.70;;;1.80;;
757;SDS011;363;48.764;9.172;2022-08-03T09:47:10;1.80;;;1.70;;
757;SDS011;363;48.764;9.172;2022-08-03T09:49:37;2.13;;;2.03;;
757;SDS011;363;48.764;9.172;2022-08-03T09:52:12;1.80;;;1.70;;
757;SDS011;363;48.764;9.172;2022-08-03T09:54:40;2.77;;;2.30;;
757;SDS011;363;48.764;9.172;2022-08-03T09:57:06;2.20;;;2.10;;
757;SDS011;363;48.764;9.172;2022-08-03T09:59:32;2.00;;;1.90;;
757;SDS011;363;48.764;9.172;2022-08-03T10:01:58;2.50;;;2.30;;
757;SDS011;363;48.764;9.172;2022-08-03T10:04:24;2.37;;;2.17;;
757;SDS011;363;48.764;9.172;2022-08-03T10:07:00;2.10;;;2.00;;
757;SDS011;363;48.764;9.172;2022-08-03T10:09:28;1.90;;;1.80;;
757;SDS011;363;48.764;9.172;2022-08-03T10:11:54;2.20;;;1.90;;
757;SDS011;363;48.764;9.172;2022-08-03T10:14:20;1.80;;;1.70;;
757;SDS011;363;48.764;9.172;2022-08-03T10:16:47;2.40;;;2.20;;
757;SDS011;363;48.764;9.172;2022-08-03T10:19:13;1.70;;;1.60;;
757;SDS011;363;48.764;9.172;2022-08-03T10:21:40;2.17;;;1.90;;
757;SDS011;363;48.764;9.172;2022-08-03T10:24:11;2.77;;;2.03;;
757;SDS011;363;48.764;9.172;2022-08-03T10:26:40;1.87;;;1.77;;
757;SDS011;363;48.764;9.172;2022-08-03T10:29:11;2.10;;;1.87;;
757;SDS011;363;48.764;9.172;2022-08-03T10:31:48;2.00;;;1.80;;
757;SDS011;363;48.764;9.172;2022-08-03T10:34:23;2.13;;;1.93;;
757;SDS011;363;48.764;9.172;2022-08-03T10:36:51;3.00;;;2.30;;
757;SDS011;363;48.764;9.172;2022-08-03T10:39:18;2.47;;;1.80;;
757;SDS011;363;48.764;9.172;2022-08-03T10:41:47;2.33;;;2.13;;
757;SDS011;363;48.764;9.172;2022-08-03T10:44:16;2.33;;;2.23;;
757;SDS011;363;48.764;9.172;2022-08-03T10:46:43;2.20;;;2.10;;
757;SDS011;363;48.764;9.172;2022-08-03T10:49:14;2.17;;;1.97;;
757;SDS011;363;48.764;9.172;2022-08-03T10:51:43;2.40;;;2.23;;
757;SDS011;363;48.764;9.172;2022-08-03T11:00:09;2.07;;;1.97;;
757;SDS011;363;48.764;9.172;2022-08-03T11:05:28;2.20;;;2.10;;
757;SDS011;363;48.764;9.172;2022-08-03T11:10:45;2.83;;;2.30;;
757;SDS011;363;48.764;9.172;2022-08-03T11:13:15;2.10;;;2.00;;
757;SDS011;363;48.764;9.172;2022-08-03T11:15:43;5.53;;;2.17;;
757;SDS011;363;48.764;9.172;2022-08-03T11:18:11;2.70;;;2.43;;
757;SDS011;363;48.764;9.172;2022-08-03T11:20:48;2.20;;;2.07;;
757;SDS011;363;48.764;9.172;2022-08-03T11:23:19;2.30;;;2.10;;
757;SDS011;363;48.764;9.172;2022-08-03T11:26:16;2.10;;;1.90;;
757;SDS011;363;48.764;9.172;2022-08-03T11:28:43;2.60;;;2.40;;
757;SDS011;363;48.764;9.172;2022-08-03T11:34:25;2.50;;;2.40;;
757;SDS011;363;48.764;9.172;2022-08-03T11:39:45;2.20;;;2.10;;
757;SDS011;363;48.764;9.172;2022-08-03T11:42:57;2.47;;;2.27;;
757;SDS011;363;48.764;9.172;2022-08-03T11:44:58;2.50;;;2.30;;
757;SDS011;363;48.764;9.172;2022-08-03T11:47:26;3.07;;;2.87;;
757;SDS011;363;48.764;9.172;2022-08-03T11:49:53;2.87;;;2.67;;
757;SDS011;363;48.764;9.172;2022-08-03T11:52:22;2.70;;;2.27;;
757;SDS011;363;48.764;9.172;2022-08-03T11:54:51;2.10;;;2.00;;
757;SDS011;363;48.764;9.172;2022-08-03T11:57:27;2.50;;;2.30;;
757;SDS011;363;48.764;9.172;2022-08-03T11:59:56;2.90;;;2.70;;
757;SDS011;363;48.764;9.172;2022-08-03T12:02:22;2.80;;;2.60;;
757;SDS011;363;48.764;9.172;2022-08-03T12:04:52;2.07;;;1.93;;
757;SDS011;363;48.764;9.172;2022-08-03T12:07:22;3.77;;;2.20;;
757;SDS011;363;48.764;9.172;2022-08-03T12:10:10;2.43;;;2.33;;
757;SDS011;363;48.764;9.172;2022-08-03T12:12:38;2.13;;;2.03;;
757;SDS011;363;48.764;9.172;2022-08-03T12:15:05;2.20;;;2.07;;
757;SDS011;363;48.764;9.172;2022-08-03T12:17:35;2.50;;;2.37;;
757;SDS011;363;48.764;9.172;2022-08-03T12:20:02;2.30;;;2.10;;
757;SDS011;363;48.764;9.172;2022-08-03T12:22:30;4.17;;;2.30;;
757;SDS011;363;48.764;9.172;2022-08-03T12:25:01;2.77;;;2.10;;
757;SDS011;363;48.764;9.172;2022-08-03T12:27:27;2.70;;;2.50;;
757;SDS011;363;48.764;9.172;2022-08-03T12:29:54;2.70;;;2.50;;
757;SDS011;363;48.764;9.172;2022-08-03T12:32:21;3.03;;;2.00;;
757;SDS011;363;48.764;9.172;2022-08-03T12:34:47;2.80;;;2.30;;
757;SDS011;363;48.764;9.172;2022-08-03T12:37:17;2.47;;;2.27;;
757;SDS011;363;48.764;9.172;2022-08-03T12:39:48;2.80;;;2.17;;
757;SDS011;363;48.764;9.172;2022-08-03T12:42:15;2.50;;;2.37;;
757;SDS011;363;48.764;9.172;2022-08-03T12:44:41;2.70;;;2.50;;
757;SDS011;363;48.764;9.172;2022-08-03T12:47:07;3.40;;;2.57;;
757;SDS011;363;48.764;9.172;2022-08-03T12:49:50;3.20;;;2.40;;
757;SDS011;363;48.764;9.172;2022-08-03T12:52:17;2.30;;;2.20;;
757;SDS011;363;48.764;9.172;2022-08-03T12:54:54;2.60;;;2.40;;
757;SDS011;363;48.764;9.172;2022-08-03T12:57:20;2.57;;;2.47;;
757;SDS011;363;48.764;9.172;2022-08-03T12:59:46;3.50;;;2.70;;
757;SDS011;363;48.764;9.172;2022-08-03T13:02:22;2.77;;;2.20;;
757;SDS011;363;48.764;9.172;2022-08-03T13:04:49;2.60;;;2.40;;
757;SDS011;363;48.764;9.172;2022-08-03T13:07:18;2.40;;;2.20;;
757;SDS011;363;48.764;9.172;2022-08-03T13:14:41;2.73;;;2.63;;
757;SDS011;363;48.764;9.172;2022-08-03T13:17:08;2.73;;;2.53;;
757;SDS011;363;48.764;9.172;2022-08-03T13:19:34;2.00;;;1.90;;
757;SDS011;363;48.764;9.172;2022-08-03T13:22:14;2.60;;;2.40;;
757;SDS011;363;48.764;9.172;2022-08-03T13:24:41;2.60;;;2.40;;
757;SDS011;363;48.764;9.172;2022-08-03T13:27:09;2.77;;;2.57;;
757;SDS011;363;48.764;9.172;2022-08-03T13:29:35;2.80;;;2.60;;
757;SDS011;363;48.764;9.172;2022-08-03T13:32:01;3.83;;;2.37;;
757;SDS011;363;48.764;9.172;2022-08-03T13:34:27;2.47;;;2.20;;
757;SDS011;363;48.764;9.172;2022-08-03T13:36:53;3.10;;;2.80;;
757;SDS011;363;48.764;9.172;2022-08-03T13:39:19;2.83;;;2.63;;
757;SDS011;363;48.764;9.172;2022-08-03T13:41:45;2.57;;;2.37;;
757;SDS011;363;48.764;9.172;2022-08-03T13:44:11;2.67;;;2.37;;
757;SDS011;363;48.764;9.172;2022-08-03T13:46:37;2.23;;;2.13;;
757;SDS011;363;48.764;9.172;2022-08-03T13:49:02;2.40;;;2.30;;
757;SDS011;363;48.764;9.172;2022-08-03T13:51:28;2.73;;;2.53;;
757;SDS011;363;48.764;9.172;2022-08-03T13:53:54;2.70;;;2.40;;
757;SDS011;363;48.764;9.172;2022-08-03T13:56:21;3.03;;;2.33;;
757;SDS011;363;48.764;9.172;2022-08-03T13:58:46;2.20;;;2.10;;
757;SDS011;363;48.764;9.172;2022-08-03T14:01:12;2.53;;;2.43;;
757;SDS011;363;48.764;9.172;2022-08-03T14:03:37;2.33;;;2.23;;
757;SDS011;363;48.764;9.172;2022-08-03T14:06:03;2.80;;;2.60;;
757;SDS011;363;48.764;9.172;2022-08-03T14:08:29;2.60;;;2.40;;
757;SDS011;363;48.764;9.172;2022-08-03T14:10:54;2.60;;;2.40;;
757;SDS011;363;48.764;9.172;2022-08-03T14:13:20;2.50;;;2.30;;
757;SDS011;363;48.764;9.172;2022-08-03T14:15:46;2.60;;;2.40;;
757;SDS011;363;48.764;9.172;2022-08-03T14:18:12;5.13;;;2.70;;
757;SDS011;363;48.764;9.172;2022-08-03T14:20:37;3.37;;;2.80;;
757;SDS011;363;48.764;9.172;2022-08-03T14:23:03;1.97;;;1.87;;
757;SDS011;363;48.764;9.172;2022-08-03T14:25:29;2.43;;;2.23;;
757;SDS011;363;48.764;9.172;2022-08-03T14:27:55;2.83;;;2.63;;
757;SDS011;363;48.764;9.172;2022-08-03T14:30:21;2.40;;;2.30;;
757;SDS011;363;48.764;9.172;2022-08-03T14:32:46;2.57;;;2.37;;
757;SDS011;363;48.764;9.172;2022-08-03T14:35:12;2.23;;;2.13;;
757;SDS011;363;48.764;9.172;2022-08-03T14:37:38;2.37;;;2.17;;
757;SDS011;363;48.764;9.172;2022-08-03T14:40:03;2.50;;;2.30;;
757;SDS011;363;48.764;9.172;2022-08-03T14:42:30;2.60;;;2.40;;
757;SDS011;363;48.764;9.172;2022-08-03T14:44:55;2.40;;;2.30;;
757;SDS011;363;48.764;9.172;2022-08-03T14:47:21;2.53;;;2.33;;
757;SDS011;363;48.764;9.172;2022-08-03T14:49:47;2.53;;;2.30;;
757;SDS011;363;48.764;9.172;2022-08-03T14:52:12;2.70;;;2.50;;
757;SDS011;363;48.764;9.172;2022-08-03T14:54:38;3.43;;;2.13;;
757;SDS011;363;48.764;9.172;2022-08-03T14:57:03;4.03;;;2.30;;
757;SDS011;363;48.764;9.172;2022-08-03T14:59:29;2.60;;;2.40;;
757;SDS011;363;48.764;9.172;2022-08-03T15:01:54;2.50;;;2.30;;
757;SDS011;363;48.764;9.172;2022-08-03T15:04:20;2.30;;;2.10;;
757;SDS011;363;48.764;9.172;2022-08-03T15:06:46;2.03;;;1.93;;
757;SDS011;363;48.764;9.172;2022-08-03T15:09:11;2.30;;;2.17;;
757;SDS011;363;48.764;9.172;2022-08-03T15:11:38;2.70;;;2.50;;
757;SDS011;363;48.764;9.172;2022-08-03T15:14:04;2.70;;;2.50;;
757;SDS011;363;48.764;9.172;2022-08-03T15:16:30;2.87;;;2.67;;
757;SDS011;363;48.764;9.172;2022-08-03T15:18:56;2.73;;;2.17;;
757;SDS011;363;48.764;9.172;2022-08-03T15:21:21;2.87;;;2.67;;
757;SDS011;363;48.764;9.172;2022-08-03T15:23:47;2.70;;;2.50;;
757;SDS011;363;48.764;9.172;2022-08-03T15:26:12;3.13;;;2.83;;
757;SDS011;363;48.764;9.172;2022-08-03T15:28:38;2.30;;;2.20;;
757;SDS011;363;48.764;9.172;2022-08-03T15:31:04;3.43;;;2.37;;
757;SDS011;363;48.764;9.172;2022-08-03T15:33:30;2.10;;;2.00;;
757;SDS011;363;48.764;9.172;2022-08-03T15:35:56;2.87;;;2.40;;
757;SDS011;363;48.764;9.172;2022-08-03T15:38:22;3.40;;;2.40;;
757;SDS011;363;48.764;9.172;2022-08-03T15:40:47;2.93;;;2.27;;
757;SDS011;363;48.764;9.172;2022-08-03T15:43:13;2.70;;;2.47;;
757;SDS011;363;48.764;9.172;2022-08-03T15:45:39;2.50;;;2.30;;
757;SDS011;363;48.764;9.172;2022-08-03T15:48:05;2.27;;;2.07;;
757;SDS011;363;48.764;9.172;2022-08-03T15:50:31;2.60;;;2.40;;
757;SDS011;363;48.764;9.172;2022-08-03T15:52:56;2.63;;;2.43;;
757;SDS011;363;48.764;9.172;2022-08-03T15:55:22;3.73;;;1.90;;
757;SDS011;363;48.764;9.172;2022-08-03T15:57:47;2.57;;;2.37;;
757;SDS011;363;48.764;9.172;2022-08-03T16:00:13;2.40;;;2.23;;
757;SDS011;363;48.764;9.172;2022-08-03T16:02:39;2.27;;;2.13;;
757;SDS011;363;48.764;9.172;2022-08-03T16:05:05;3.00;;;2.70;;
757;SDS011;363;48.764;9.172;2022-08-03T16:07:31;2.50;;;2.30;;
757;SDS011;363;48.764;9.172;2022-08-03T16:10:13;2.40;;;2.30;;
757;SDS011;363;48.764;9.172;2022-08-03T16:12:40;2.60;;;2.40;;
757;SDS011;363;48.764;9.172;2022-08-03T16:15:06;2.73;;;2.50;;
757;SDS011;363;48.764;9.172;2022-08-03T16:17:33;3.10;;;2.80;;
757;SDS011;363;48.764;9.172;2022-08-03T16:19:58;2.50;;;2.30;;
757;SDS011;363;48.764;9.172;2022-08-03T16:22:24;3.10;;;2.90;;
757;SDS011;363;48.764;9.172;2022-08-03T16:24:50;2.80;;;2.20;;